Aeroporto :
LOGIN :

Iscrizione | Disclaimer

   EN    FR    IT 

 










Sommario :    VFR   VFR Marginale   IFR   IFR Intensivo   IFR Molto Intensivo
Visibilità : 
Base nubi : 
>= 8 km
>= 3000ft
5 / 8 km
1000 / 3000 ft
1500m / 5 km
500 / 1000 ft
800 / 1500m
200 / 500 ft
< 800m
< 200 ft
Simboli :   Temporali  Nebbia  Neve Forte  Precipitazioni Forti  Vento > 20 kt
SIGMETs :   Varie  Temporali  Ghiacco  Turbolenza  Onda orograficha  Ceneri Vulcaniche






- Altitudine del aeroporto : 74 ft
- Codice IATA : LRH


LFBH - La Rochelle Ile de Ré

ULTIMO METAR :
  • 150900Z AUTO 24012KT 9999 FEW021 22/17 Q1008 NOSIG

METARs OBSOLETI :
  • 150830Z AUTO 24011KT CAVOK 22/18 Q1008 NOSIG
  • 150800Z AUTO 23008KT 200V260 CAVOK 22/18 Q1008 NOSIG
  • 150730Z AUTO 24009KT CAVOK 21/17 Q1008 NOSIG
  • 150700Z AUTO 22007KT 200V260 9999 FEW016 21/18 Q1008 NOSIG
  • 150630Z AUTO 23007KT 9999 FEW017 20/18 Q1008 NOSIG

TAF TAF LFBH
Valido dal 15 a 06 ore il 16 a 06 ore UTC


150500Z 1506/1606 25008KT CAVOK
TEMPO 1603/1606 4500 -SHRA SCT025TCU
ATIS : +33 5 46 00 13 92



MetMap, La meteo Aeronautica in un colpo d'occhio ! - Copyright ORBIFLY Dicembre 2007 - Disclaimer

ORBIFLY MET'MAP TEAM :

Programmazione e sviluppo : Alexandra Zaïnal
Concezione : Baudouin d'Aumeries
Supporto tecnico e logistico : Manuel Goepfert
Aiuto : Marc-Olivier Méhu
Aiuto per la traduzione : Arnaldo La Scala




FONTI E CREDITI :

   NOAA